Siem Pilot — LCPF — position and weather

sailwx.info

Track history (hours):
 
Tides and Currents Weather Stations Pressure Air Temp Water Temp Dewpoint Dewpoint Depression Visibility Wind Speed Wind Dir Waves Ship Positions

Siem Pilot

Last reported at 2014-Oct-25 18:31 UTC. Time now 2014-Oct-25 19:04 UTC.
Position N 58°59' E 005°43'.

Length 88 m; draft 5.5 m.

Type: Wing in ground effect craft. MMSI: 257458000.

Date/timePositionNaut miles runAvg speedWind from/ knotsBaromVisibWave heightAir tempDewpointWater temp
2014-Oct-25 18:31N 58°59' E 005°43'0 0.0
2014-Oct-25 17:31N 58°59' E 005°43'0 0.0
2014-Oct-25 16:31N 58°59' E 005°43'0 0.0
2014-Oct-25 15:31N 58°59' E 005°43'0 0.0
2014-Oct-25 14:31N 58°59' E 005°43'0 0.0
2014-Oct-25 13:31N 58°59' E 005°43'0 0.0
2014-Oct-25 12:31N 58°59' E 005°43'0 0.0
2014-Oct-25 11:31N 58°59' E 005°43'0 0.0
2014-Oct-25 10:31N 58°59' E 005°43'0 0.0
2014-Oct-25 09:31N 58°59' E 005°43'0 0.0
2014-Oct-25 08:31N 58°59' E 005°43'0 0.0
2014-Oct-25 07:31N 58°59' E 005°43'0 0.0
2014-Oct-25 06:31N 58°59' E 005°43'0 0.0
2014-Oct-25 05:31N 58°59' E 005°43'0 0.0
2014-Oct-25 04:31N 58°59' E 005°43'0 0.0
2014-Oct-25 03:31N 58°59' E 005°43'0 0.0
2014-Oct-25 02:31N 58°59' E 005°43'1 0.8
2014-Oct-25 01:33N 58°60' E 005°42'5 5.5
2014-Oct-25 00:34N 58°56' E 005°34'1 0.8
2014-Oct-24 23:30N 58°55' E 005°35'0 0.0
2014-Oct-24 22:30N 58°55' E 005°35'0 0.0
2014-Oct-24 21:33N 58°55' E 005°35'2 1.7
2014-Oct-24 20:33N 58°56' E 005°33'1111.3
2014-Oct-24 19:33N 59°07' E 005°26'11 9.3
2014-Oct-24 18:24N 59°17' E 005°20'1011.8
2014-Oct-24 17:33N 59°27' E 005°14'  
2014-Oct-21 20:22N 68°08' E 009°56'8 9.2
2014-Oct-21 19:31N 68°14' E 010°10'1010.1
2014-Oct-21 18:31N 68°21' E 010°30'1010.3
2014-Oct-21 17:31N 68°27' E 010°51'1110.7
2014-Oct-21 16:31N 68°35' E 011°13'1111.0
2014-Oct-21 15:31N 68°42' E 011°35'1111.4
2014-Oct-21 14:31N 68°50' E 011°58'1111.4
2014-Oct-21 13:31N 68°58' E 012°21'1211.9
2014-Oct-21 12:31N 69°06' E 012°45'1211.6
2014-Oct-21 11:31N 69°14' E 013°09'1111.4
2014-Oct-21 10:31N 69°21' E 013°33'1212.1
2014-Oct-21 09:31N 69°30' E 013°58'1211.9
2014-Oct-21 08:31N 69°38' E 014°23'1311.8
2014-Oct-21 07:25N 69°47' E 014°50'1112.0
2014-Oct-21 06:31N 69°54' E 015°13'  
Track history (hours):
 
Tides and Currents Weather Stations Pressure Air Temp Water Temp Dewpoint Dewpoint Depression Visibility Wind Speed Wind Dir Waves Ship Positions

Siem Pilot

Last reported at 2014-Oct-25 18:31 UTC. Time now 2014-Oct-25 19:04 UTC.
Position N 58°59' E 005°43'.

Length 88 m; draft 5.5 m.

Type: Wing in ground effect craft. MMSI: 257458000.

Date/timePositionNaut miles runAvg speedWind from/ knotsBaromVisibWave heightAir tempDewpointWater temp
2014-Oct-25 18:31N 58°59' E 005°43'0 0.0
2014-Oct-25 17:31N 58°59' E 005°43'0 0.0
2014-Oct-25 16:31N 58°59' E 005°43'0 0.0
2014-Oct-25 15:31N 58°59' E 005°43'0 0.0
2014-Oct-25 14:31N 58°59' E 005°43'0 0.0
2014-Oct-25 13:31N 58°59' E 005°43'0 0.0
2014-Oct-25 12:31N 58°59' E 005°43'0 0.0
2014-Oct-25 11:31N 58°59' E 005°43'0 0.0
2014-Oct-25 10:31N 58°59' E 005°43'0 0.0
2014-Oct-25 09:31N 58°59' E 005°43'0 0.0
2014-Oct-25 08:31N 58°59' E 005°43'0 0.0
2014-Oct-25 07:31N 58°59' E 005°43'0 0.0
2014-Oct-25 06:31N 58°59' E 005°43'0 0.0
2014-Oct-25 05:31N 58°59' E 005°43'0 0.0
2014-Oct-25 04:31N 58°59' E 005°43'0 0.0
2014-Oct-25 03:31N 58°59' E 005°43'0 0.0
2014-Oct-25 02:31N 58°59' E 005°43'1 0.8
2014-Oct-25 01:33N 58°60' E 005°42'5 5.5
2014-Oct-25 00:34N 58°56' E 005°34'1 0.8
2014-Oct-24 23:30N 58°55' E 005°35'0 0.0
2014-Oct-24 22:30N 58°55' E 005°35'0 0.0
2014-Oct-24 21:33N 58°55' E 005°35'2 1.7
2014-Oct-24 20:33N 58°56' E 005°33'1111.3
2014-Oct-24 19:33N 59°07' E 005°26'11 9.3
2014-Oct-24 18:24N 59°17' E 005°20'1011.8
2014-Oct-24 17:33N 59°27' E 005°14'  
2014-Oct-21 20:22N 68°08' E 009°56'8 9.2
2014-Oct-21 19:31N 68°14' E 010°10'1010.1
2014-Oct-21 18:31N 68°21' E 010°30'1010.3
2014-Oct-21 17:31N 68°27' E 010°51'1110.7
2014-Oct-21 16:31N 68°35' E 011°13'1111.0
2014-Oct-21 15:31N 68°42' E 011°35'1111.4
2014-Oct-21 14:31N 68°50' E 011°58'1111.4
2014-Oct-21 13:31N 68°58' E 012°21'1211.9
2014-Oct-21 12:31N 69°06' E 012°45'1211.6
2014-Oct-21 11:31N 69°14' E 013°09'1111.4
2014-Oct-21 10:31N 69°21' E 013°33'1212.1
2014-Oct-21 09:31N 69°30' E 013°58'1211.9
2014-Oct-21 08:31N 69°38' E 014°23'1311.8
2014-Oct-21 07:25N 69°47' E 014°50'1112.0
2014-Oct-21 06:31N 69°54' E 015°13'  

Dump ship's entire track history